createdAt,value
2023-02-06T00:05:33.568Z,53.88
2023-02-06T00:06:33.093Z,55.64
2023-02-06T00:07:33.060Z,59.66
2023-02-06T00:08:33.033Z,64.88
2023-02-06T00:09:33.006Z,69.17
2023-02-06T00:10:33.001Z,60.94
2023-02-06T00:11:32.971Z,54.89
2023-02-06T00:12:32.938Z,55.04
2023-02-06T00:13:32.909Z,63.27
2023-02-06T00:14:32.906Z,74.33
2023-02-06T00:15:32.913Z,62.69
2023-02-06T00:16:32.845Z,50.14
2023-02-06T00:17:32.813Z,50.37
2023-02-06T00:18:32.807Z,55.20
2023-02-06T00:19:32.769Z,62.81
2023-02-06T00:20:32.749Z,66.56
2023-02-06T00:21:32.726Z,54.94
2023-02-06T00:22:32.708Z,50.92
2023-02-06T00:23:32.684Z,50.67
2023-02-06T00:24:32.653Z,55.73
2023-02-06T00:25:32.636Z,65.56
2023-02-06T00:26:32.631Z,64.84
2023-02-06T00:27:32.600Z,54.29
2023-02-06T00:28:32.591Z,50.07
2023-02-06T00:29:32.560Z,50.37
2023-02-06T00:30:32.562Z,51.77
2023-02-06T00:31:32.524Z,50.84
2023-02-06T00:32:32.528Z,51.57
2023-02-06T00:33:32.465Z,50.39
2023-02-06T00:34:32.432Z,52.83
2023-02-06T00:35:32.432Z,58.07
2023-02-06T00:36:32.403Z,66.09
2023-02-06T00:37:32.366Z,71.19
2023-02-06T00:38:32.348Z,57.01
2023-02-06T00:39:32.323Z,45.89
2023-02-06T00:40:32.305Z,49.32
2023-02-06T00:41:32.284Z,60.65
2023-02-06T00:42:32.263Z,61.91
2023-02-06T00:43:32.240Z,63.23
2023-02-06T00:44:32.221Z,48.59
2023-02-06T00:45:32.197Z,48.42
2023-02-06T00:46:32.204Z,47.35
2023-02-06T00:47:32.150Z,59.63
2023-02-06T00:48:32.127Z,63.08
2023-02-06T00:49:32.096Z,59.65
2023-02-06T00:50:32.075Z,48.65
2023-02-06T00:51:32.039Z,48.72
2023-02-06T00:52:32.024Z,55.76
2023-02-06T00:53:31.991Z,59.66
2023-02-06T00:54:31.972Z,62.37
2023-02-06T00:55:31.952Z,50.99
2023-02-06T00:56:31.949Z,47.61
2023-02-06T00:57:31.915Z,48.05
2023-02-06T00:58:31.887Z,55.30
2023-02-06T00:59:31.871Z,62.88
2023-02-06T01:00:31.846Z,68.35
2023-02-06T01:01:31.854Z,58.40
2023-02-06T01:02:31.872Z,48.32
2023-02-06T01:03:31.782Z,56.13
2023-02-06T01:04:31.763Z,55.49
2023-02-06T01:05:31.734Z,62.56
2023-02-06T01:06:31.733Z,59.48
2023-02-06T01:07:31.693Z,50.19
2023-02-06T01:08:31.673Z,46.25
2023-02-06T01:09:31.650Z,48.40
2023-02-06T01:10:31.647Z,57.58
2023-02-06T01:11:31.619Z,61.31
2023-02-06T01:12:31.602Z,59.72
2023-02-06T01:13:31.568Z,47.55
2023-02-06T01:14:31.543Z,49.30
2023-02-06T01:15:31.522Z,56.68
2023-02-06T01:16:31.508Z,60.17
2023-02-06T01:17:31.478Z,63.45
2023-02-06T01:18:31.457Z,59.02
2023-02-06T01:19:31.440Z,48.41
2023-02-06T01:20:31.413Z,48.70
2023-02-06T01:21:31.413Z,50.23
2023-02-06T01:22:31.381Z,53.30
2023-02-06T01:23:31.353Z,60.54
2023-02-06T01:24:31.340Z,54.57
2023-02-06T01:25:31.325Z,48.28
2023-02-06T01:26:31.321Z,53.66
2023-02-06T01:27:31.283Z,56.86
2023-02-06T01:28:31.268Z,63.77
2023-02-06T01:29:31.249Z,65.00
2023-02-06T01:30:31.257Z,52.37
2023-02-06T01:31:31.260Z,52.87
2023-02-06T01:32:31.199Z,51.98
2023-02-06T01:33:31.185Z,60.43
2023-02-06T01:34:31.155Z,63.52
2023-02-06T01:35:31.129Z,61.11
2023-02-06T01:36:31.123Z,51.75
2023-02-06T01:37:31.098Z,49.57
2023-02-06T01:38:31.080Z,59.19
2023-02-06T01:39:31.058Z,61.49
2023-02-06T01:40:31.034Z,71.25
2023-02-06T01:41:31.021Z,61.70
2023-02-06T01:42:30.999Z,58.88
2023-02-06T01:43:30.976Z,57.58
2023-02-06T01:44:30.971Z,60.78
2023-02-06T01:45:30.936Z,66.30
2023-02-06T01:46:30.974Z,69.50
2023-02-06T01:47:30.911Z,60.75
2023-02-06T01:48:30.895Z,52.46
2023-02-06T01:49:30.863Z,57.47
2023-02-06T01:50:30.845Z,59.61
2023-02-06T01:51:30.809Z,66.68
2023-02-06T01:52:30.868Z,62.51
2023-02-06T01:53:30.763Z,54.17
2023-02-06T01:54:30.747Z,56.89
2023-02-06T01:55:30.732Z,54.06
2023-02-06T01:56:30.702Z,58.75
2023-02-06T01:57:30.683Z,65.52
2023-02-06T01:58:30.669Z,62.63
2023-02-06T01:59:30.637Z,47.73
2023-02-06T02:00:30.695Z,52.21
2023-02-06T02:01:30.620Z,61.74
2023-02-06T02:02:30.588Z,63.25
2023-02-06T02:03:30.579Z,63.27
2023-02-06T02:04:30.609Z,53.78
2023-02-06T02:05:30.543Z,50.68
2023-02-06T02:06:30.516Z,53.46
2023-02-06T02:07:30.493Z,57.05
2023-02-06T02:08:30.471Z,63.85
2023-02-06T02:09:30.502Z,61.69
2023-02-06T02:10:30.435Z,53.24
2023-02-06T02:11:30.449Z,50.84
2023-02-06T02:12:30.454Z,50.99
2023-02-06T02:13:30.379Z,59.34
2023-02-06T02:14:30.341Z,66.69
2023-02-06T02:15:30.336Z,58.11
2023-02-06T02:16:30.351Z,50.01
2023-02-06T02:17:30.286Z,48.97
2023-02-06T02:18:30.252Z,55.37
2023-02-06T02:19:30.223Z,60.25
2023-02-06T02:20:30.211Z,66.34
2023-02-06T02:21:30.180Z,62.09
2023-02-06T02:22:30.170Z,54.80
2023-02-06T02:23:30.155Z,53.85
2023-02-06T02:24:31.823Z,54.06
2023-02-06T02:25:30.098Z,62.80
2023-02-06T02:26:30.076Z,66.57
2023-02-06T02:27:30.055Z,54.69
2023-02-06T02:28:30.093Z,50.45
2023-02-06T02:29:30.022Z,46.16
2023-02-06T02:30:30.026Z,57.08
2023-02-06T02:31:30.092Z,63.45
2023-02-06T02:32:29.964Z,64.39
2023-02-06T02:33:29.948Z,49.80
2023-02-06T02:34:29.933Z,48.27
2023-02-06T02:35:29.950Z,53.15
2023-02-06T02:36:29.902Z,58.48
2023-02-06T02:37:29.878Z,63.35
2023-02-06T02:38:29.879Z,59.66
2023-02-06T02:39:29.844Z,46.09
2023-02-06T02:40:29.828Z,46.90
2023-02-06T02:41:29.811Z,51.73
2023-02-06T02:42:29.785Z,59.37
2023-02-06T02:43:29.768Z,63.44
2023-02-06T02:44:29.751Z,53.81
2023-02-06T02:45:29.740Z,50.15
2023-02-06T02:46:29.709Z,48.70
2023-02-06T02:47:29.690Z,56.58
2023-02-06T02:48:29.668Z,66.77
2023-02-06T02:49:29.644Z,65.57
2023-02-06T02:50:29.625Z,51.18
2023-02-06T02:51:29.609Z,50.49
2023-02-06T02:52:29.588Z,54.25
2023-02-06T02:53:30.062Z,58.83
2023-02-06T02:54:29.553Z,65.43
2023-02-06T02:55:29.522Z,64.19
2023-02-06T02:56:29.562Z,54.89
2023-02-06T02:57:29.474Z,51.51
2023-02-06T02:58:29.462Z,51.75
2023-02-06T02:59:29.432Z,52.12
2023-02-06T03:00:29.428Z,54.24
2023-02-06T03:01:29.395Z,55.15
2023-02-06T03:02:29.437Z,52.54
2023-02-06T03:03:29.373Z,54.25
2023-02-06T03:04:29.337Z,55.05
2023-02-06T03:05:29.310Z,62.92
2023-02-06T03:06:29.305Z,63.23
2023-02-06T03:07:29.301Z,58.21
2023-02-06T03:08:29.273Z,51.75
2023-02-06T03:09:29.236Z,54.83
2023-02-06T03:10:29.221Z,55.78
2023-02-06T03:11:29.205Z,66.61
2023-02-06T03:13:30.164Z,63.64
2023-02-06T03:14:29.150Z,52.49
2023-02-06T03:15:29.122Z,56.09
2023-02-06T03:16:29.179Z,60.22
2023-02-06T03:17:29.091Z,67.65
2023-02-06T03:18:29.083Z,65.46
2023-02-06T03:19:29.059Z,55.09
2023-02-06T03:20:29.049Z,54.67
2023-02-06T03:21:29.033Z,55.97
2023-02-06T03:22:29.019Z,63.08
2023-02-06T03:23:29.017Z,70.91
2023-02-06T03:24:28.999Z,65.41
2023-02-06T03:25:29.012Z,55.05
2023-02-06T03:26:28.964Z,58.28
2023-02-06T03:27:28.957Z,58.30
2023-02-06T03:28:28.963Z,67.31
2023-02-06T03:29:28.927Z,71.64
2023-02-06T03:30:28.931Z,56.27
2023-02-06T03:31:28.921Z,51.94
2023-02-06T03:32:28.896Z,53.60
2023-02-06T03:33:28.884Z,58.80
2023-02-06T03:34:28.883Z,65.60
2023-02-06T03:35:28.851Z,72.83
2023-02-06T03:36:28.843Z,60.65
2023-02-06T03:37:28.835Z,52.19
2023-02-06T03:38:28.821Z,55.79
2023-02-06T03:39:28.808Z,59.63
2023-02-06T03:40:28.791Z,65.36
2023-02-06T03:41:28.776Z,64.75
2023-02-06T03:42:28.762Z,53.87
2023-02-06T03:43:28.761Z,47.35
2023-02-06T03:44:28.751Z,54.41
2023-02-06T03:45:28.726Z,61.12
2023-02-06T03:46:28.718Z,66.77
2023-02-06T03:47:28.692Z,65.18
2023-02-06T03:48:28.682Z,58.40
2023-02-06T03:49:28.662Z,48.90
2023-02-06T03:50:28.652Z,49.71
2023-02-06T03:51:28.658Z,53.47
2023-02-06T03:52:28.623Z,55.03
2023-02-06T03:53:28.625Z,61.50
2023-02-06T03:54:28.611Z,48.67
2023-02-06T03:55:28.594Z,44.80
2023-02-06T03:56:28.576Z,46.66
2023-02-06T03:57:28.564Z,53.34
2023-02-06T03:58:28.580Z,57.60
2023-02-06T03:59:28.550Z,57.54
2023-02-06T04:00:28.518Z,49.06
2023-02-06T04:01:28.564Z,39.35
2023-02-06T04:02:28.536Z,43.89
2023-02-06T04:03:28.489Z,44.74
2023-02-06T04:04:28.482Z,52.14
2023-02-06T04:05:28.454Z,55.14
2023-02-06T04:06:28.446Z,48.11
2023-02-06T04:07:28.439Z,39.59
2023-02-06T04:08:28.413Z,39.47
2023-02-06T04:09:28.420Z,47.52
2023-02-06T04:10:28.414Z,50.77
2023-02-06T04:11:28.365Z,56.72
2023-02-06T04:12:28.361Z,49.19
2023-02-06T04:13:28.361Z,42.10
2023-02-06T04:14:28.331Z,36.44
2023-02-06T04:15:28.327Z,47.58
2023-02-06T04:16:28.323Z,50.03
2023-02-06T04:17:46.415Z,54.82
2023-02-06T04:18:28.270Z,50.24
2023-02-06T04:19:28.242Z,44.63
2023-02-06T04:20:28.243Z,45.19
2023-02-06T04:21:28.200Z,49.46
2023-02-06T04:22:28.194Z,56.56
2023-02-06T04:23:28.181Z,57.30
2023-02-06T04:24:30.781Z,46.21
2023-02-06T04:25:28.153Z,42.50
2023-02-06T04:26:28.104Z,45.86
2023-02-06T04:27:28.107Z,50.89
2023-02-06T04:28:28.071Z,57.03
2023-02-06T04:29:28.042Z,54.24
2023-02-06T04:30:28.031Z,43.68
2023-02-06T04:31:28.051Z,39.15
2023-02-06T04:32:27.981Z,42.88
2023-02-06T04:33:27.949Z,46.97
2023-02-06T04:34:27.957Z,57.02
2023-02-06T04:35:27.981Z,50.97
2023-02-06T04:36:27.886Z,42.29
2023-02-06T04:37:27.889Z,39.26
2023-02-06T04:38:27.856Z,45.38
2023-02-06T04:39:27.852Z,54.57
2023-02-06T04:40:27.836Z,59.71
2023-02-06T04:41:27.819Z,50.32
2023-02-06T05:05:27.531Z,37.49
2023-02-06T05:06:27.444Z,37.72
2023-02-06T05:07:27.428Z,46.56
2023-02-06T05:08:27.421Z,53.50
2023-02-06T05:09:27.419Z,55.23
2023-02-06T05:10:27.394Z,56.10
2023-02-06T05:11:27.365Z,43.19
2023-02-06T05:12:27.351Z,36.73
2023-02-06T05:13:27.352Z,48.20
2023-02-06T05:14:27.314Z,45.59
2023-02-06T05:15:27.305Z,52.27
2023-02-06T05:16:27.281Z,49.94
2023-02-06T05:17:27.261Z,38.42
2023-02-06T05:18:27.235Z,38.25
2023-02-06T05:19:27.262Z,43.95
2023-02-06T05:20:27.250Z,51.22
2023-02-06T05:21:27.186Z,54.04
2023-02-06T05:22:27.164Z,51.39
2023-02-06T05:23:27.140Z,39.96
2023-02-06T05:24:27.131Z,38.66
2023-02-06T05:25:27.109Z,45.51
2023-02-06T05:26:27.099Z,49.65
2023-02-06T05:27:27.080Z,56.78
2023-02-06T05:28:27.070Z,40.52
2023-02-06T05:29:27.045Z,32.24
2023-02-06T05:30:27.039Z,42.07
2023-02-06T05:31:27.072Z,44.75
2023-02-06T05:32:26.990Z,50.32
2023-02-06T05:33:26.971Z,55.15
2023-02-06T05:34:26.948Z,44.84
2023-02-06T05:35:26.951Z,35.57
2023-02-06T05:36:26.924Z,41.62
2023-02-06T05:37:26.939Z,47.34
2023-02-06T05:38:26.883Z,53.39
2023-02-06T05:39:26.876Z,55.67
2023-02-06T05:40:27.154Z,44.20
2023-02-06T05:41:26.857Z,34.09
2023-02-06T05:42:26.817Z,37.60
2023-02-06T05:43:26.797Z,44.87
2023-02-06T05:44:26.782Z,53.47
2023-02-06T05:45:26.770Z,50.78
2023-02-06T05:46:26.801Z,40.82
2023-02-06T05:47:26.754Z,34.74
2023-02-06T05:48:26.737Z,43.56
2023-02-06T05:49:26.713Z,46.78
2023-02-06T05:50:26.697Z,53.99
2023-02-06T05:51:26.685Z,56.48
2023-02-06T05:52:26.674Z,40.05
2023-02-06T05:53:26.645Z,40.66
2023-02-06T05:54:26.622Z,42.57
2023-02-06T05:55:26.622Z,52.83
2023-02-06T05:56:26.581Z,56.24
2023-02-06T05:57:26.564Z,52.28
2023-02-06T05:58:26.547Z,38.95
2023-02-06T05:59:26.533Z,40.92
2023-02-06T06:00:26.508Z,42.40
2023-02-06T06:01:26.485Z,52.32
2023-02-06T06:02:26.464Z,57.69
2023-02-06T06:03:26.452Z,52.56
2023-02-06T06:04:26.436Z,51.30
2023-02-06T06:05:26.394Z,46.15
2023-02-06T06:06:26.383Z,46.93
2023-02-06T06:07:26.354Z,50.76
2023-02-06T06:08:26.349Z,58.52
2023-02-06T06:09:26.317Z,51.86
2023-02-06T06:10:26.294Z,36.59
2023-02-06T06:11:26.266Z,42.12
2023-02-06T06:12:26.253Z,45.74
2023-02-06T06:13:26.211Z,52.29
2023-02-06T06:14:26.188Z,54.66
2023-02-06T06:15:26.164Z,48.65
2023-02-06T06:16:26.289Z,45.08
2023-02-06T06:17:26.147Z,46.15
2023-02-06T06:18:26.097Z,47.55
2023-02-06T06:19:26.072Z,55.08
2023-02-06T06:20:26.034Z,58.60
2023-02-06T06:21:26.018Z,44.91
2023-02-06T06:22:25.999Z,35.66
2023-02-06T06:23:25.956Z,37.85
2023-02-06T06:24:25.938Z,43.72
2023-02-06T06:25:25.912Z,55.03
2023-02-06T06:26:25.893Z,55.83
2023-02-06T06:27:25.872Z,45.46
2023-02-06T06:28:25.837Z,36.52
2023-02-06T06:29:25.910Z,42.89
2023-02-06T06:30:25.844Z,45.68
2023-02-06T06:31:25.860Z,57.05
2023-02-06T06:32:25.798Z,46.97
2023-02-06T06:33:25.747Z,37.56
2023-02-06T06:34:25.743Z,33.46
2023-02-06T06:35:25.685Z,47.36
2023-02-06T06:36:25.674Z,53.95
2023-02-06T06:37:25.647Z,70.62
2023-02-06T06:38:25.632Z,48.35
2023-02-06T06:39:25.606Z,53.33
2023-02-06T06:40:25.591Z,48.79
2023-02-06T06:41:25.697Z,55.98
2023-02-06T06:42:25.545Z,69.58
2023-02-06T06:43:25.519Z,97.74
2023-02-06T06:44:25.508Z,149.31
2023-02-06T06:45:25.521Z,164.96
2023-02-06T06:46:25.443Z,177.19
2023-02-06T06:47:25.432Z,192.71
2023-02-06T06:48:25.395Z,194.74
2023-02-06T06:49:25.378Z,201.02
2023-02-06T06:50:25.329Z,208.19
2023-02-06T06:51:25.314Z,208.55
2023-02-06T06:52:25.888Z,209.80
2023-02-06T06:53:25.248Z,213.78
2023-02-06T06:54:25.210Z,223.99
2023-02-06T06:55:25.179Z,237.57
2023-02-06T06:56:25.149Z,247.49
2023-02-06T06:57:25.218Z,249.33
2023-02-06T06:58:25.116Z,250.00
2023-02-06T06:59:25.120Z,249.23
2023-02-06T07:00:25.135Z,250.00
2023-02-06T07:01:25.697Z,250.51
2023-02-06T07:02:25.172Z,250.91
2023-02-06T07:03:25.086Z,252.60
2023-02-06T07:04:25.014Z,255.94
2023-02-06T07:05:25.002Z,264.14
2023-02-06T07:06:24.967Z,272.11
2023-02-06T07:07:24.968Z,253.06
2023-02-06T07:08:24.900Z,249.54
2023-02-06T07:09:24.912Z,250.00
2023-02-06T07:10:24.983Z,250.00
2023-02-06T07:11:24.807Z,248.86
2023-02-06T07:12:24.894Z,248.24
2023-02-06T07:13:24.739Z,249.72
2023-02-06T07:14:24.717Z,247.78
2023-02-06T07:15:24.676Z,248.34
2023-02-06T07:16:24.695Z,249.39
2023-02-06T07:17:24.614Z,247.90
2023-02-06T07:18:24.583Z,248.67
2023-02-06T07:19:24.561Z,249.89
2023-02-06T07:20:24.526Z,249.06
2023-02-06T07:21:24.494Z,249.69
2023-02-06T07:22:24.461Z,248.43
2023-02-06T07:23:24.431Z,248.12
2023-02-06T07:24:24.410Z,249.01
2023-02-06T07:25:24.409Z,249.21
2023-02-06T07:26:24.377Z,249.45
2023-02-06T07:27:24.345Z,249.70
2023-02-06T07:28:24.355Z,251.49
2023-02-06T07:29:24.244Z,254.31
2023-02-06T07:30:24.246Z,249.89
2023-02-06T07:31:24.214Z,248.50
2023-02-06T07:32:24.150Z,247.62
2023-02-06T07:33:24.130Z,247.79
2023-02-06T07:34:24.084Z,248.24
2023-02-06T07:35:24.062Z,251.03
2023-02-06T07:36:24.037Z,252.36
2023-02-06T07:37:24.011Z,256.12
2023-02-06T07:38:23.956Z,250.00
2023-02-06T07:39:23.960Z,249.68
2023-02-06T07:40:25.164Z,249.24
2023-02-06T07:41:23.877Z,249.30
2023-02-06T07:42:23.826Z,249.42
2023-02-06T07:43:23.803Z,248.21
2023-02-06T07:44:23.787Z,249.59
2023-02-06T07:45:23.759Z,250.17
2023-02-06T07:46:23.782Z,250.00
2023-02-06T07:47:23.681Z,247.14
2023-02-06T07:48:23.664Z,238.75
2023-02-06T07:49:23.588Z,227.74
2023-02-06T07:50:23.550Z,215.57
2023-02-06T07:51:23.519Z,207.65
2023-02-06T07:52:23.488Z,193.12
2023-02-06T07:53:23.458Z,170.57
2023-02-06T07:54:23.422Z,124.49
2023-02-06T07:55:23.388Z,104.42
2023-02-06T07:56:23.371Z,88.59
2023-02-06T07:57:23.328Z,68.47
2023-02-06T07:58:23.289Z,49.28
2023-02-06T07:59:23.263Z,17.52
2023-02-06T08:00:23.261Z,26.25
2023-02-06T08:01:23.213Z,50.01
2023-02-06T08:02:23.181Z,78.69
2023-02-06T08:03:23.156Z,111.50
2023-02-06T08:04:23.135Z,151.28
2023-02-06T08:05:23.086Z,158.79
2023-02-06T08:06:24.370Z,148.68
2023-02-06T08:07:23.050Z,142.47
2023-02-06T08:08:23.028Z,139.13
2023-02-06T08:09:22.980Z,136.15
2023-02-06T08:10:22.939Z,125.38
2023-02-06T08:11:22.925Z,125.33
2023-02-06T08:12:22.888Z,112.88
2023-02-06T08:13:22.869Z,102.96
2023-02-06T08:14:22.827Z,104.16
2023-02-06T08:15:22.825Z,95.12
2023-02-06T08:16:22.795Z,95.33
2023-02-06T08:17:22.737Z,88.08
2023-02-06T08:18:22.733Z,84.63
2023-02-06T08:19:22.691Z,81.79
2023-02-06T08:20:22.658Z,78.70
2023-02-06T08:21:22.629Z,76.26
2023-02-06T08:22:22.612Z,72.66
2023-02-06T08:23:22.604Z,73.74
2023-02-06T08:24:22.563Z,65.71
2023-02-06T08:25:22.531Z,67.67
2023-02-06T08:26:22.504Z,69.45
2023-02-06T08:27:22.473Z,64.09
2023-02-06T08:28:22.509Z,59.72
2023-02-06T08:29:22.441Z,55.57
2023-02-06T08:30:22.456Z,56.10
2023-02-06T08:31:22.478Z,57.57
2023-02-06T08:32:22.352Z,56.61
2023-02-06T08:33:22.352Z,54.61
2023-02-06T08:34:22.304Z,46.01
2023-02-06T08:35:22.277Z,51.75
2023-02-06T08:36:22.275Z,51.40
2023-02-06T08:37:22.248Z,51.91
2023-02-06T08:38:22.214Z,52.41
2023-02-06T08:39:22.203Z,58.12
2023-02-06T08:40:22.177Z,43.42
2023-02-06T08:41:22.199Z,49.18
2023-02-06T08:42:22.130Z,52.54
2023-02-06T08:43:22.137Z,52.92
2023-02-06T08:44:22.135Z,53.63
2023-02-06T08:45:22.095Z,11.12
2023-02-06T08:46:22.064Z,0.00
2023-02-06T08:47:22.021Z,0.00
2023-02-06T08:48:22.020Z,0.00
2023-02-06T08:49:21.992Z,2.86
2023-02-06T08:50:21.970Z,30.77
2023-02-06T08:51:21.970Z,42.80
2023-02-06T08:52:21.969Z,60.53
2023-02-06T08:53:21.938Z,72.08
2023-02-06T08:54:21.893Z,89.91
2023-02-06T08:55:25.154Z,100.65
2023-02-06T08:56:21.889Z,100.78
2023-02-06T08:57:22.071Z,101.89
2023-02-06T08:58:21.789Z,104.88
2023-02-06T08:59:22.018Z,110.38
2023-02-06T09:00:21.765Z,120.87
2023-02-06T09:01:21.812Z,123.49
2023-02-06T09:02:22.746Z,126.09
2023-02-06T09:03:21.667Z,127.50
2023-02-06T09:04:21.629Z,131.36
2023-02-06T09:05:21.604Z,134.01
2023-02-06T09:06:21.575Z,134.04
2023-02-06T09:07:21.541Z,135.76
2023-02-06T09:08:21.533Z,136.55
2023-02-06T09:09:21.498Z,140.24
2023-02-06T09:10:27.392Z,145.37
2023-02-06T09:11:22.441Z,145.61
2023-02-06T09:12:21.407Z,146.63
2023-02-06T09:13:21.377Z,148.74
2023-02-06T09:14:21.351Z,152.21
2023-02-06T09:15:21.375Z,157.40
2023-02-06T09:16:21.452Z,159.61
2023-02-06T09:17:21.309Z,160.81
2023-02-06T09:18:21.254Z,163.17
2023-02-06T09:19:21.222Z,163.88
2023-02-06T09:20:21.263Z,165.58
2023-02-06T09:21:21.154Z,165.75
2023-02-06T09:22:21.129Z,166.31
2023-02-06T09:23:21.088Z,167.30
2023-02-06T09:24:21.117Z,169.69
2023-02-06T09:25:21.051Z,173.04
2023-02-06T09:26:21.016Z,173.95
2023-02-06T09:27:20.985Z,176.59
2023-02-06T09:28:21.017Z,177.71
2023-02-06T09:29:21.051Z,76.91
2023-02-06T09:30:21.013Z,88.95
2023-02-06T09:31:20.936Z,113.98
2023-02-06T09:32:20.865Z,127.03
2023-02-06T09:33:20.844Z,134.76
2023-02-06T09:34:20.863Z,131.40
2023-02-06T09:35:20.820Z,132.26
2023-02-06T09:36:20.793Z,102.83
2023-02-06T09:37:20.789Z,68.06
2023-02-06T09:38:20.776Z,74.40
2023-02-06T09:39:20.738Z,82.45
2023-02-06T09:40:20.725Z,90.47
2023-02-06T09:41:20.696Z,92.30
2023-02-06T09:42:20.670Z,106.16
2023-02-06T09:43:20.663Z,109.59
2023-02-06T09:44:20.635Z,106.37
2023-02-06T09:45:20.630Z,119.87
2023-02-06T09:46:20.618Z,126.39
2023-02-06T09:47:20.611Z,130.82
2023-02-06T09:48:20.562Z,134.56
2023-02-06T09:49:20.525Z,134.94
2023-02-06T09:50:20.501Z,126.95
2023-02-06T09:51:20.487Z,132.91
2023-02-06T09:52:20.464Z,140.21
2023-02-06T09:53:20.416Z,141.45
2023-02-06T09:54:20.406Z,144.37
2023-02-06T09:55:20.375Z,144.59
2023-02-06T09:56:20.355Z,137.44
2023-02-06T09:57:20.314Z,132.04
2023-02-06T09:58:20.286Z,132.30
2023-02-06T09:59:20.255Z,133.70
2023-02-06T10:00:20.223Z,135.96
2023-02-06T10:01:20.234Z,140.76
2023-02-06T10:02:20.178Z,145.62
2023-02-06T10:03:20.138Z,148.34
2023-02-06T10:04:20.160Z,148.82
2023-02-06T10:05:20.078Z,150.88
2023-02-06T10:06:20.135Z,153.14
2023-02-06T10:07:20.025Z,154.55
2023-02-06T10:08:19.995Z,155.05
2023-02-06T10:09:19.984Z,155.32
2023-02-06T10:10:19.967Z,156.92
2023-02-06T10:11:19.936Z,158.60
2023-02-06T10:12:20.010Z,158.71
2023-02-06T10:13:19.889Z,158.91
2023-02-06T10:14:19.870Z,159.41
2023-02-06T10:15:19.858Z,160.91
2023-02-06T10:16:19.863Z,161.01
2023-02-06T10:17:19.766Z,161.03
2023-02-06T10:18:19.840Z,161.24
2023-02-06T10:19:19.725Z,162.03
2023-02-06T10:20:19.692Z,163.08
2023-02-06T10:21:19.670Z,162.50
2023-02-06T10:22:19.660Z,164.71
2023-02-06T10:23:19.636Z,162.36
2023-02-06T10:24:19.607Z,164.62
2023-02-06T10:25:19.568Z,164.69
2023-02-06T10:26:19.570Z,165.11
2023-02-06T10:27:19.569Z,165.75
2023-02-06T10:28:19.555Z,165.75
2023-02-06T10:29:19.620Z,166.05
2023-02-06T10:30:19.457Z,166.49
2023-02-06T10:31:19.507Z,165.76
2023-02-06T10:32:19.410Z,166.44
2023-02-06T10:33:25.592Z,167.07
2023-02-06T10:34:20.354Z,167.15
2023-02-06T10:35:19.346Z,167.20
2023-02-06T10:36:19.308Z,167.55
2023-02-06T10:37:19.284Z,167.03
2023-02-06T10:38:19.267Z,167.78
2023-02-06T10:39:19.213Z,166.34
2023-02-06T10:40:19.222Z,161.07
2023-02-06T10:41:19.151Z,157.87
2023-02-06T10:42:20.573Z,156.90
2023-02-06T10:43:19.273Z,158.72
2023-02-06T10:44:19.196Z,159.19
2023-02-06T10:45:20.507Z,160.45
2023-02-06T10:46:19.205Z,162.37
2023-02-06T10:47:19.130Z,165.87
2023-02-06T10:48:19.080Z,168.57
2023-02-06T10:49:19.049Z,169.87
2023-02-06T10:50:19.017Z,173.93
2023-02-06T10:51:18.986Z,177.28
2023-02-06T10:52:18.969Z,177.78
2023-02-06T10:53:18.921Z,183.54
2023-02-06T10:54:18.906Z,185.49
2023-02-06T10:55:18.869Z,188.77
2023-02-06T10:56:18.844Z,190.56
2023-02-06T10:57:18.814Z,192.66
2023-02-06T10:58:18.776Z,188.69
2023-02-06T10:59:18.740Z,192.67
2023-02-06T11:00:18.716Z,193.97
2023-02-06T11:01:26.040Z,196.63
2023-02-06T11:02:19.742Z,196.80
2023-02-06T11:03:18.611Z,196.89
2023-02-06T11:04:18.657Z,196.72
2023-02-06T11:05:18.584Z,197.80
2023-02-06T11:06:18.520Z,196.89
2023-02-06T11:07:18.490Z,198.01
2023-02-06T11:08:18.484Z,198.55
2023-02-06T11:09:18.436Z,199.44
2023-02-06T11:10:18.392Z,196.85
2023-02-06T11:11:18.384Z,197.28
2023-02-06T11:12:18.349Z,197.16
2023-02-06T11:13:18.412Z,202.71
2023-02-06T11:14:18.273Z,204.06
2023-02-06T11:15:18.232Z,200.70
2023-02-06T11:16:18.261Z,201.37
2023-02-06T11:17:18.185Z,202.97
2023-02-06T11:18:18.129Z,196.42
2023-02-06T11:19:18.090Z,198.73
2023-02-06T11:20:18.062Z,200.71
2023-02-06T11:21:18.025Z,201.41
2023-02-06T11:22:18.001Z,200.17
2023-02-06T11:23:17.960Z,201.43
2023-02-06T11:24:17.929Z,200.23
2023-02-06T11:25:17.937Z,200.10
2023-02-06T11:26:17.887Z,200.05
2023-02-06T11:27:17.840Z,202.30
2023-02-06T12:16:16.167Z,143.67
2023-02-06T13:02:14.881Z,163.51
2023-02-06T13:23:14.161Z,148.99
2023-02-06T13:26:14.063Z,150.31
2023-02-06T13:27:14.027Z,150.98
2023-02-06T13:28:14.056Z,146.04
2023-02-06T13:29:13.967Z,148.59
2023-02-06T13:30:13.931Z,146.47
2023-02-06T13:32:13.867Z,149.66
2023-02-06T13:33:13.875Z,149.55
2023-02-06T13:34:13.808Z,148.94
2023-02-06T13:35:13.777Z,148.27
2023-02-06T13:36:13.745Z,148.58
2023-02-06T13:37:13.712Z,145.28
2023-02-06T13:38:13.687Z,141.81
2023-02-06T13:39:13.675Z,143.17
2023-02-06T13:40:13.621Z,143.33
2023-02-06T13:41:13.612Z,144.60
2023-02-06T13:42:13.583Z,143.41
2023-02-06T13:43:13.543Z,141.09
2023-02-06T13:44:13.520Z,144.81
2023-02-06T13:45:13.483Z,142.76
2023-02-06T13:46:13.468Z,142.81
2023-02-06T13:47:13.444Z,142.95
2023-02-06T13:48:13.414Z,141.98
2023-02-06T13:49:13.402Z,141.19
2023-02-06T13:50:13.368Z,139.47
2023-02-06T13:51:13.356Z,136.87
2023-02-06T13:52:13.323Z,140.64
2023-02-06T13:53:13.293Z,136.78
2023-02-06T13:54:13.218Z,138.18
2023-02-06T13:55:13.227Z,138.99
2023-02-06T13:56:13.223Z,137.83
2023-02-06T13:57:15.512Z,137.11
2023-02-06T13:58:13.366Z,137.15
2023-02-06T13:59:13.347Z,137.23
2023-02-06T14:00:13.338Z,136.70
2023-02-06T14:01:13.458Z,136.84
2023-02-06T14:02:13.305Z,137.39
2023-02-06T14:03:13.208Z,135.54
2023-02-06T14:04:13.181Z,134.96
2023-02-06T14:05:13.155Z,139.61
2023-02-06T14:06:13.125Z,133.29
2023-02-06T14:07:13.102Z,134.38
2023-02-06T14:08:13.072Z,134.54
2023-02-06T14:09:13.089Z,134.52
2023-02-06T14:10:13.044Z,134.64
2023-02-06T14:11:13.010Z,135.26
2023-02-06T14:12:12.976Z,136.34
2023-02-06T14:13:12.948Z,133.34
2023-02-06T14:14:12.911Z,133.92
2023-02-06T14:15:12.881Z,131.89
2023-02-06T14:16:12.885Z,132.74
2023-02-06T14:17:12.813Z,136.08
2023-02-06T14:18:12.779Z,132.79
2023-02-06T14:19:12.756Z,132.72
2023-02-06T14:20:12.747Z,131.52
2023-02-06T14:21:12.704Z,133.23
2023-02-06T14:22:12.665Z,132.39
2023-02-06T14:23:12.631Z,131.37
2023-02-06T14:24:12.593Z,131.20
2023-02-06T14:25:12.581Z,132.20
2023-02-06T14:26:12.540Z,129.88
2023-02-06T14:27:12.518Z,129.69
2023-02-06T14:28:12.542Z,129.93
2023-02-06T14:29:12.470Z,131.06
2023-02-06T14:30:12.434Z,131.66
2023-02-06T14:31:12.520Z,130.44
2023-02-06T14:32:12.378Z,131.76
2023-02-06T14:33:12.353Z,131.27
2023-02-06T14:34:12.319Z,127.70
2023-02-06T14:35:12.305Z,128.38
2023-02-06T14:36:12.297Z,130.44
2023-02-06T14:37:12.260Z,132.62
2023-02-06T14:38:12.227Z,132.44
2023-02-06T14:39:12.208Z,133.23
2023-02-06T14:40:12.330Z,131.15
2023-02-06T14:41:12.178Z,131.93
2023-02-06T14:42:12.163Z,134.67
2023-02-06T14:43:12.121Z,131.73
2023-02-06T14:44:15.134Z,131.97
2023-02-06T14:45:12.087Z,132.14
2023-02-06T14:46:12.224Z,132.38
2023-02-06T14:47:12.039Z,132.25
2023-02-06T14:48:12.006Z,132.34
2023-02-06T14:49:11.973Z,133.49
2023-02-06T14:50:11.939Z,133.15
2023-02-06T14:51:11.943Z,132.71
2023-02-06T14:52:11.909Z,130.78
2023-02-06T14:53:11.875Z,134.59
2023-02-06T14:54:11.844Z,134.69
2023-02-06T14:55:11.815Z,134.71
2023-02-06T14:56:11.793Z,134.70
2023-02-06T14:57:11.761Z,131.88
2023-02-06T14:58:11.731Z,134.63
2023-02-06T14:59:11.716Z,134.72
2023-02-06T15:00:11.695Z,133.68
2023-02-06T15:01:11.689Z,134.48
2023-02-06T15:02:11.630Z,135.63
2023-02-06T15:03:11.606Z,134.99
2023-02-06T15:04:11.585Z,133.12
2023-02-06T15:05:11.557Z,133.27
2023-02-06T15:06:11.544Z,132.53
2023-02-06T15:07:11.503Z,133.12